createdAt,value
2024-03-15T00:02:59.431Z,9.91
2024-03-15T00:07:02.503Z,9.90
2024-03-15T00:11:06.680Z,9.83
2024-03-15T00:15:11.045Z,9.79
2024-03-15T00:19:13.084Z,9.75
2024-03-15T00:23:15.115Z,9.72
2024-03-15T00:27:17.189Z,9.70
2024-03-15T00:31:19.265Z,9.71
2024-03-15T00:35:21.505Z,9.71
2024-03-15T00:39:24.211Z,9.70
2024-03-15T00:43:26.323Z,9.68
2024-03-15T00:47:29.674Z,9.68
2024-03-15T00:51:31.906Z,9.67
2024-03-15T00:55:34.460Z,9.67
2024-03-15T00:59:36.503Z,9.67
2024-03-15T01:03:40.144Z,9.67
2024-03-15T01:07:43.667Z,9.67
2024-03-15T01:11:45.741Z,9.66
2024-03-15T01:15:47.909Z,9.66
2024-03-15T01:19:50.623Z,9.66
2024-03-15T01:23:53.691Z,9.66
2024-03-15T01:27:55.758Z,9.68
2024-03-15T01:31:58.014Z,9.72
2024-03-15T01:36:00.192Z,9.77
2024-03-15T01:40:02.258Z,9.81
2024-03-15T01:44:04.404Z,9.86
2024-03-15T01:48:08.646Z,9.89
2024-03-15T01:52:10.890Z,9.89
2024-03-15T01:56:13.884Z,9.88
2024-03-15T02:00:17.593Z,9.87
2024-03-15T02:04:19.699Z,9.84
2024-03-15T02:08:21.749Z,9.80
2024-03-15T02:12:24.525Z,9.76
2024-03-15T02:16:27.299Z,9.71
2024-03-15T02:20:29.372Z,9.71
2024-03-15T02:24:31.490Z,9.71
2024-03-15T02:28:34.536Z,9.70
2024-03-15T02:32:38.344Z,9.69
2024-03-15T02:36:41.362Z,9.67
2024-03-15T02:40:43.431Z,9.60
2024-03-15T02:44:45.507Z,9.52
2024-03-15T02:48:47.614Z,9.46
2024-03-15T02:52:50.201Z,9.39
2024-03-15T03:02:46.169Z,9.21
2024-03-15T03:06:48.563Z,9.13
2024-03-15T03:10:50.706Z,9.04
2024-03-15T03:14:52.794Z,8.98
2024-03-15T03:18:54.827Z,8.98
2024-03-15T03:22:57.984Z,8.99
2024-03-15T03:27:00.965Z,9.00
2024-03-15T03:31:03.286Z,8.94
2024-03-15T03:35:06.051Z,8.89
2024-03-15T03:39:09.591Z,8.86
2024-03-15T03:43:12.275Z,8.89
2024-03-15T03:47:14.295Z,8.98
2024-03-15T03:51:16.416Z,9.09
2024-03-15T03:55:18.485Z,9.17
2024-03-15T03:59:20.499Z,9.21
2024-03-15T04:03:22.579Z,9.26
2024-03-15T04:07:31.661Z,9.31
2024-03-15T04:11:34.204Z,9.34
2024-03-15T04:15:37.052Z,9.38
2024-03-15T04:19:40.180Z,9.41
2024-03-15T04:23:43.622Z,9.37
2024-03-15T04:27:47.526Z,9.38
2024-03-15T04:31:50.072Z,9.35
2024-03-15T04:35:52.189Z,9.36
2024-03-15T04:39:55.205Z,9.33
2024-03-15T04:43:57.413Z,9.24
2024-03-15T04:48:01.756Z,9.09
2024-03-15T04:52:04.030Z,9.00
2024-03-15T04:56:06.327Z,8.82
2024-03-15T05:00:14.552Z,8.67
2024-03-15T05:04:16.965Z,8.51
2024-03-15T05:08:19.027Z,8.43
2024-03-15T05:12:21.092Z,8.43
2024-03-15T05:16:23.767Z,8.39
2024-03-15T05:20:25.843Z,8.44
2024-03-15T05:24:27.861Z,8.52
2024-03-15T05:28:29.980Z,8.61
2024-03-15T05:32:33.277Z,8.69
2024-03-15T05:36:36.350Z,8.64
2024-03-15T05:40:38.463Z,8.62
2024-03-15T05:44:40.528Z,8.60
2024-03-15T05:48:43.074Z,8.61
2024-03-15T05:52:45.259Z,8.64
2024-03-15T05:56:47.448Z,8.63
2024-03-15T06:00:50.055Z,8.65
2024-03-15T06:04:52.153Z,8.70
2024-03-15T06:08:54.240Z,8.81
2024-03-15T06:12:56.441Z,8.96
2024-03-15T06:16:58.596Z,9.10
2024-03-15T06:21:01.181Z,9.27
2024-03-15T06:25:03.377Z,9.50
2024-03-15T06:29:06.213Z,9.72
2024-03-15T06:33:08.314Z,9.93
2024-03-15T06:37:13.280Z,10.09
2024-03-15T06:41:22.737Z,10.24
2024-03-15T06:45:25.466Z,10.35
2024-03-15T06:49:44.741Z,10.46
2024-03-15T06:53:48.662Z,10.62
2024-03-15T06:57:52.185Z,10.77
2024-03-15T07:01:56.535Z,10.90
2024-03-15T07:05:59.281Z,11.09
2024-03-15T07:10:01.678Z,11.22
2024-03-15T07:14:05.187Z,11.20
2024-03-15T07:18:09.445Z,11.14
2024-03-15T07:22:11.871Z,11.13
2024-03-15T07:26:14.128Z,11.10
2024-03-15T07:30:16.269Z,11.01
2024-03-15T07:34:18.555Z,10.95
2024-03-15T07:38:20.734Z,10.85
2024-03-15T07:42:22.818Z,10.77
2024-03-15T07:46:26.115Z,10.72
2024-03-15T07:50:28.258Z,10.65
2024-03-15T07:54:30.407Z,10.71
2024-03-15T07:58:33.343Z,10.72
2024-03-15T08:02:36.300Z,10.89
2024-03-15T08:06:38.475Z,11.11
2024-03-15T08:10:40.688Z,11.25
2024-03-15T08:14:43.958Z,11.43
2024-03-15T08:18:50.229Z,11.75
2024-03-15T08:22:53.352Z,11.99
2024-03-15T08:26:55.770Z,11.97
2024-03-15T08:30:58.355Z,11.92
2024-03-15T08:35:00.661Z,11.97
2024-03-15T08:39:08.706Z,11.99
2024-03-15T08:43:11.927Z,12.02
2024-03-15T08:47:14.202Z,12.15
2024-03-15T08:51:16.314Z,12.30
2024-03-15T08:55:19.647Z,12.36
2024-03-15T08:59:22.755Z,12.37
2024-03-15T09:03:26.575Z,12.33
2024-03-15T09:08:31.952Z,12.27
2024-03-15T09:12:36.341Z,12.18
2024-03-15T09:16:42.486Z,12.12
2024-03-15T09:20:45.681Z,12.03
2024-03-15T09:24:48.013Z,12.03
2024-03-15T09:28:50.417Z,12.09
2024-03-15T09:32:52.685Z,12.23
2024-03-15T09:36:56.922Z,12.24
2024-03-15T09:40:59.479Z,12.23
2024-03-15T09:45:01.544Z,12.34
2024-03-15T09:49:04.705Z,12.36
2024-03-15T09:53:08.720Z,12.35
2024-03-15T09:57:15.490Z,12.32
2024-03-15T10:01:18.939Z,12.31
2024-03-15T10:05:22.700Z,12.38
2024-03-15T10:09:24.997Z,12.41
2024-03-15T10:13:33.250Z,12.40
2024-03-15T10:17:37.388Z,12.42
2024-03-15T10:21:40.102Z,12.57
2024-03-15T10:25:42.201Z,12.62
2024-03-15T10:29:44.772Z,12.74
2024-03-15T10:33:46.946Z,12.81
2024-03-15T10:37:50.803Z,13.06
2024-03-15T10:41:53.140Z,13.09
2024-03-15T10:45:55.439Z,12.98
2024-03-15T10:49:58.275Z,12.99
2024-03-15T10:54:00.546Z,13.16
2024-03-15T10:58:07.205Z,13.22
2024-03-15T11:02:11.703Z,13.27
2024-03-15T11:06:13.917Z,13.26
2024-03-15T11:10:26.900Z,13.24
2024-03-15T11:14:34.146Z,13.33
2024-03-15T11:18:37.615Z,13.52
2024-03-15T11:22:40.377Z,13.66
2024-03-15T11:26:42.502Z,13.77
2024-03-15T11:30:46.338Z,13.93
2024-03-15T11:34:50.198Z,14.05
2024-03-15T11:38:52.291Z,14.02
2024-03-15T11:43:02.602Z,13.81
2024-03-15T11:47:10.614Z,13.76
2024-03-15T11:51:12.816Z,13.67
2024-03-15T11:55:19.081Z,13.64
2024-03-15T11:59:21.529Z,13.60
2024-03-15T12:03:29.003Z,13.48
2024-03-15T12:07:31.909Z,13.22
2024-03-15T12:11:38.157Z,13.07
2024-03-15T12:15:40.661Z,13.30
2024-03-15T12:19:42.811Z,13.51
2024-03-15T12:23:44.837Z,13.73
2024-03-15T12:27:47.031Z,13.95
2024-03-15T12:31:49.212Z,14.26
2024-03-15T12:35:51.535Z,14.45
2024-03-15T12:39:53.786Z,14.77
2024-03-15T12:43:55.953Z,15.02
2024-03-15T12:47:58.085Z,14.99
2024-03-15T12:52:00.417Z,15.03
2024-03-15T12:56:02.615Z,14.70
2024-03-15T13:00:12.559Z,14.42
2024-03-15T13:04:14.805Z,14.32
2024-03-15T13:08:17.322Z,14.50
2024-03-15T13:12:19.361Z,14.60
2024-03-15T13:16:21.529Z,14.69
2024-03-15T13:20:24.653Z,14.82
2024-03-15T13:24:26.996Z,14.88
2024-03-15T13:28:29.128Z,14.99
2024-03-15T13:32:31.358Z,15.18
2024-03-15T13:36:35.254Z,15.21
2024-03-15T13:40:37.346Z,15.31
2024-03-15T13:44:39.401Z,15.15
2024-03-15T13:48:45.317Z,14.93
2024-03-15T13:52:49.092Z,14.79
2024-03-15T13:56:51.962Z,14.82
2024-03-15T14:00:54.110Z,14.90
2024-03-15T14:04:57.095Z,14.84
2024-03-15T14:08:59.589Z,14.77
2024-03-15T14:13:02.638Z,14.78
2024-03-15T14:17:05.640Z,14.66
2024-03-15T14:21:08.012Z,14.60
2024-03-15T14:25:17.153Z,14.52
2024-03-15T14:29:21.965Z,14.56
2024-03-15T14:33:24.028Z,14.44
2024-03-15T14:37:29.711Z,14.43
2024-03-15T14:41:31.773Z,14.51
2024-03-15T14:45:37.120Z,14.79
2024-03-15T14:49:39.936Z,14.98
2024-03-15T14:53:43.839Z,15.11
2024-03-15T14:57:46.322Z,15.18
2024-03-15T15:01:48.741Z,14.93
2024-03-15T15:05:51.169Z,14.65
2024-03-15T15:09:53.845Z,14.39
2024-03-15T15:13:55.971Z,14.26
2024-03-15T15:17:58.506Z,14.21
2024-03-15T15:22:00.757Z,14.19
2024-03-15T15:26:02.945Z,14.20
2024-03-15T15:30:10.299Z,14.28
2024-03-15T15:34:12.481Z,14.44
2024-03-15T15:38:14.888Z,14.46
2024-03-15T15:42:16.986Z,14.40
2024-03-15T15:46:19.240Z,14.23
2024-03-15T15:50:23.328Z,14.20
2024-03-15T15:54:26.894Z,14.12
2024-03-15T15:58:29.240Z,14.07
2024-03-15T16:02:31.487Z,13.97
2024-03-15T16:06:33.679Z,13.90
2024-03-15T16:10:38.214Z,13.85
2024-03-15T16:14:40.258Z,13.77
2024-03-15T16:18:42.377Z,14.05
2024-03-15T16:22:44.452Z,14.66
2024-03-15T16:26:46.485Z,14.74
2024-03-15T16:30:48.538Z,14.20
2024-03-15T16:34:51.061Z,13.78
2024-03-15T16:38:55.491Z,13.53
2024-03-15T16:43:00.224Z,13.34
2024-03-15T16:47:02.456Z,13.21
2024-03-15T16:51:05.226Z,13.06
2024-03-15T16:55:12.485Z,12.98
2024-03-15T16:59:15.464Z,12.89
2024-03-15T17:03:17.815Z,12.82
2024-03-15T17:07:20.022Z,12.74
2024-03-15T17:11:22.131Z,12.62
2024-03-15T17:15:27.607Z,12.49
2024-03-15T17:19:29.746Z,12.42
2024-03-15T17:29:31.327Z,12.29
2024-03-15T17:33:33.425Z,12.23
2024-03-15T17:37:35.672Z,12.13
2024-03-15T17:41:38.293Z,12.06
2024-03-15T17:45:40.574Z,11.97
2024-03-15T17:49:42.706Z,11.90
2024-03-15T17:53:45.807Z,11.82
2024-03-15T17:57:47.871Z,11.78
2024-03-15T18:01:50.023Z,11.75
2024-03-15T18:05:52.103Z,11.70
2024-03-15T18:09:54.177Z,11.64
2024-03-15T18:13:56.308Z,11.57
2024-03-15T18:17:58.389Z,11.57
2024-03-15T18:22:01.329Z,11.74
2024-03-15T18:26:03.734Z,11.58
2024-03-15T18:30:06.750Z,11.54
2024-03-15T18:34:09.480Z,11.55
2024-03-15T18:38:11.786Z,11.56
2024-03-15T18:42:13.823Z,11.58
2024-03-15T18:46:15.949Z,11.60
2024-03-15T18:50:18.156Z,11.60
2024-03-15T18:54:21.350Z,11.60
2024-03-15T18:58:24.543Z,11.54
2024-03-15T19:02:27.652Z,11.49
2024-03-15T19:06:29.724Z,11.46
2024-03-15T19:10:31.772Z,11.40
2024-03-15T19:14:35.120Z,11.31
2024-03-15T19:18:37.255Z,11.23
2024-03-15T19:22:39.579Z,11.13
2024-03-15T19:26:41.636Z,11.13
2024-03-15T19:30:43.738Z,11.13
2024-03-15T19:34:45.898Z,11.18
2024-03-15T19:38:48.010Z,11.23
2024-03-15T19:42:50.829Z,11.25
2024-03-15T19:46:54.112Z,11.29
2024-03-15T19:50:56.172Z,11.15
2024-03-15T19:54:58.272Z,10.81
2024-03-15T19:59:00.394Z,10.16
2024-03-15T20:03:02.460Z,9.83
2024-03-15T20:07:05.470Z,9.60
2024-03-15T20:11:13.046Z,9.41
2024-03-15T20:15:15.198Z,9.25
2024-03-15T20:19:20.183Z,9.09
2024-03-15T20:23:22.311Z,9.04
2024-03-15T20:27:24.323Z,9.05
2024-03-15T20:31:26.479Z,9.05
2024-03-15T20:35:29.393Z,9.13
2024-03-15T20:39:32.695Z,9.20
2024-03-15T20:43:35.198Z,9.22
2024-03-15T20:47:37.292Z,9.20
2024-03-15T20:51:39.399Z,9.17
2024-03-15T20:55:42.661Z,9.08
2024-03-15T20:59:44.823Z,9.01
2024-03-15T21:03:49.760Z,8.96
2024-03-15T21:07:51.896Z,8.90
2024-03-15T21:11:53.934Z,8.91
2024-03-15T21:15:56.916Z,8.90
2024-03-15T21:20:02.719Z,8.85
2024-03-15T21:24:05.592Z,8.84
2024-03-15T21:28:09.906Z,8.85
2024-03-15T21:32:12.074Z,8.91
2024-03-15T21:36:14.102Z,9.02
2024-03-15T21:40:19.501Z,9.10
2024-03-15T21:44:21.774Z,9.11
2024-03-15T21:48:23.823Z,9.18
2024-03-15T21:52:27.438Z,9.18
2024-03-15T21:56:29.780Z,9.20
2024-03-15T22:00:37.906Z,9.19
2024-03-15T22:04:40.417Z,9.15
2024-03-15T22:08:42.479Z,9.04
2024-03-15T22:12:48.019Z,8.90
2024-03-15T22:16:50.246Z,8.75
2024-03-15T22:20:52.466Z,8.59
2024-03-15T22:25:04.738Z,8.42
2024-03-15T22:29:12.729Z,8.28
2024-03-15T22:33:16.041Z,8.12
2024-03-15T22:37:18.197Z,8.07
2024-03-15T22:41:24.037Z,8.08
2024-03-15T22:45:27.571Z,8.03
2024-03-15T22:49:30.882Z,8.04
2024-03-15T22:53:34.066Z,8.04
2024-03-15T22:57:36.410Z,8.09
2024-03-15T23:01:38.904Z,8.20
2024-03-15T23:05:42.390Z,8.29
2024-03-15T23:09:44.497Z,8.39
2024-03-15T23:13:46.586Z,8.48
2024-03-15T23:17:49.792Z,8.53
2024-03-15T23:21:54.818Z,8.63
2024-03-15T23:25:58.428Z,8.78
2024-03-15T23:30:00.468Z,8.92
2024-03-15T23:34:05.285Z,9.01
2024-03-15T23:38:07.432Z,9.04
2024-03-15T23:42:09.493Z,9.11
2024-03-15T23:46:11.639Z,9.17
2024-03-15T23:50:15.058Z,9.15
2024-03-15T23:54:17.110Z,9.13
2024-03-15T23:58:19.476Z,9.08
